Glasgo, Connecticut
Current Conditions -  °F | °C
As of 11:53 PM on Wednesday 26 Nov 2014 (Local Time) from KWST Reporting Station
Light Snow Light Snow  
Wind Chill: 26°   Ceiling: 2000
Heat Index: 35°   Visibility: 5mi
Dew Point: 32°   Wind: 14mph
Humidity: 89%   Direction: 350°N
Pressure: 29.67"   Gusts: 25mph
Location:  41.56°N, 71.89°W
Report Text: KWST 270453Z AUTO 35012G22KT 5SM -SN BR SCT016 BKN020 OVC040 02/00 A2967 RMK AO2 PK WND 35028/0429 RAE41UPB28E39SNB41 SLP047 P0000 I1000 T00170000 400940017
Loading
Personal Weather Stations






























Interactive Weather Map New forecast layout! Learn more

10-Day Weather Forecast

Advertisements
Track Severe Weather on mobile